createdAt,value
2019-03-03T00:00:51.490Z,134.77
2019-03-03T00:03:21.017Z,138.27
2019-03-03T00:05:50.633Z,145.30
2019-03-03T00:08:20.162Z,138.30
2019-03-03T00:10:49.728Z,141.00
2019-03-03T00:13:19.337Z,148.03
2019-03-03T00:15:48.900Z,121.93
2019-03-03T00:18:18.433Z,145.23
2019-03-03T00:21:05.537Z,132.93
2019-03-03T00:23:36.726Z,132.27
2019-03-03T00:26:06.230Z,130.93
2019-03-03T00:28:35.777Z,126.03
2019-03-03T00:31:05.346Z,122.70
2019-03-03T00:33:35.970Z,128.77
2019-03-03T00:36:05.472Z,121.03
2019-03-03T00:38:37.258Z,127.53
2019-03-03T00:41:11.245Z,130.97
2019-03-03T00:43:42.442Z,117.30
2019-03-03T00:46:29.938Z,122.97
2019-03-03T00:49:03.829Z,121.57
2019-03-03T00:51:40.573Z,113.30
2019-03-03T00:54:14.501Z,111.27
2019-03-03T00:56:48.837Z,113.33
2019-03-03T00:59:22.737Z,113.97
2019-03-03T01:01:59.661Z,106.97
2019-03-03T01:04:36.763Z,124.47
2019-03-03T01:07:24.251Z,112.03
2019-03-03T01:10:04.417Z,126.33
2019-03-03T01:12:51.544Z,117.47
2019-03-03T01:15:22.797Z,115.23
2019-03-03T01:17:56.673Z,116.57
2019-03-03T01:20:30.623Z,109.80
2019-03-03T01:23:10.858Z,109.37
2019-03-03T01:25:40.886Z,118.77
2019-03-03T01:28:10.378Z,117.97
2019-03-03T01:30:39.974Z,122.43
2019-03-03T01:33:09.510Z,114.40
2019-03-03T01:35:39.044Z,118.77
2019-03-03T01:38:09.892Z,107.37
2019-03-03T01:40:39.394Z,130.17
2019-03-03T01:43:08.930Z,112.27
2019-03-03T01:45:38.489Z,120.00
2019-03-03T01:48:08.023Z,112.67
2019-03-03T01:50:37.523Z,111.77
2019-03-03T01:53:07.049Z,121.13
2019-03-03T01:55:36.578Z,114.37
2019-03-03T01:58:06.105Z,111.87
2019-03-03T02:00:35.665Z,106.53
2019-03-03T02:03:06.038Z,104.97
2019-03-03T02:05:35.529Z,124.70
2019-03-03T02:08:05.427Z,118.60
2019-03-03T02:10:35.028Z,102.43
2019-03-03T02:13:04.593Z,108.97
2019-03-03T02:15:34.126Z,103.20
2019-03-03T02:18:03.615Z,117.83
2019-03-03T02:20:33.148Z,109.67
2019-03-03T02:23:02.637Z,103.10
2019-03-03T02:25:32.242Z,110.20
2019-03-03T02:28:01.738Z,106.43
2019-03-03T02:30:31.327Z,99.83
2019-03-03T02:33:00.763Z,107.07
2019-03-03T02:35:30.323Z,95.80
2019-03-03T02:37:59.817Z,107.37
2019-03-03T02:40:29.388Z,116.20
2019-03-03T02:42:58.837Z,108.10
2019-03-03T02:45:28.458Z,107.87
2019-03-03T02:47:57.965Z,109.17
2019-03-03T02:50:27.506Z,119.20
2019-03-03T02:52:56.993Z,110.77
2019-03-03T02:55:26.525Z,116.67
2019-03-03T02:57:56.016Z,108.93
2019-03-03T03:00:25.617Z,115.97
2019-03-03T03:02:56.762Z,110.33
2019-03-03T03:05:44.933Z,116.37
2019-03-03T03:08:16.057Z,117.50
2019-03-03T03:10:53.198Z,108.50
2019-03-03T03:13:40.635Z,128.43
2019-03-03T03:16:17.753Z,106.70
2019-03-03T03:19:03.959Z,120.93
2019-03-03T03:21:44.162Z,118.93
2019-03-03T03:24:18.271Z,117.50
2019-03-03T03:26:52.418Z,109.20
2019-03-03T03:29:26.553Z,117.70
2019-03-03T03:32:03.598Z,122.33
2019-03-03T03:34:34.723Z,117.37
2019-03-03T03:37:05.890Z,124.33
2019-03-03T03:39:37.593Z,127.50
2019-03-03T03:42:20.725Z,125.90
2019-03-03T03:44:57.372Z,124.63
2019-03-03T03:47:28.570Z,123.10
2019-03-03T03:49:59.706Z,125.90
2019-03-03T03:52:30.885Z,138.07
2019-03-03T03:55:16.942Z,125.43
2019-03-03T03:57:48.128Z,125.43
2019-03-03T04:00:32.218Z,120.70
2019-03-03T04:03:19.466Z,131.93
2019-03-03T04:05:53.419Z,128.03
2019-03-03T04:08:30.562Z,120.77
2019-03-03T04:11:01.700Z,123.40
2019-03-03T04:13:32.874Z,117.40
2019-03-03T04:16:20.011Z,126.60
2019-03-03T04:18:54.292Z,130.90
2019-03-03T04:21:36.971Z,118.37
2019-03-03T04:24:17.111Z,129.80
2019-03-03T04:26:57.001Z,118.20
2019-03-03T04:29:34.018Z,122.33
2019-03-03T04:32:11.009Z,122.60
2019-03-03T04:35:00.069Z,116.20
2019-03-03T04:37:31.205Z,117.80
2019-03-03T04:40:04.841Z,111.53
2019-03-03T04:42:35.968Z,123.07
2019-03-03T04:45:14.556Z,119.67
2019-03-03T04:48:01.980Z,107.57
2019-03-03T04:50:35.870Z,117.90
2019-03-03T04:53:23.011Z,106.97
2019-03-03T04:56:09.286Z,109.03
2019-03-03T04:58:58.369Z,113.53
2019-03-03T05:01:29.574Z,111.40
2019-03-03T05:04:06.412Z,110.53
2019-03-03T05:06:43.571Z,122.23
2019-03-03T05:09:26.881Z,120.40
2019-03-03T05:12:09.869Z,120.07
2019-03-03T05:14:43.745Z,127.13
2019-03-03T05:17:22.777Z,120.67
2019-03-03T05:19:53.905Z,116.53
2019-03-03T05:22:23.466Z,130.77
2019-03-03T05:24:53.121Z,111.07
2019-03-03T05:27:22.665Z,112.83
2019-03-03T05:29:52.217Z,114.23
2019-03-03T05:32:21.697Z,121.60
2019-03-03T05:34:53.151Z,111.17
2019-03-03T05:37:22.671Z,104.73
2019-03-03T05:39:52.202Z,117.53
2019-03-03T05:42:21.686Z,112.77
2019-03-03T05:44:53.331Z,108.57
2019-03-03T05:47:22.870Z,107.63
2019-03-03T05:49:52.414Z,121.90
2019-03-03T05:52:21.921Z,103.53
2019-03-03T05:54:51.830Z,108.77
2019-03-03T05:57:21.365Z,111.43
2019-03-03T05:59:50.906Z,108.27
2019-03-03T06:02:20.405Z,106.43
2019-03-03T06:04:51.818Z,106.33
2019-03-03T06:07:21.314Z,102.37
2019-03-03T06:09:50.845Z,94.20
2019-03-03T06:12:20.385Z,102.03
2019-03-03T06:14:51.881Z,109.53
2019-03-03T06:17:21.463Z,106.33
2019-03-03T06:19:50.958Z,106.87
2019-03-03T06:22:20.538Z,110.97
2019-03-03T06:24:50.113Z,101.77
2019-03-03T06:27:19.704Z,99.10
2019-03-03T06:29:49.194Z,105.53
2019-03-03T06:32:18.790Z,103.63
2019-03-03T06:34:48.285Z,102.00
2019-03-03T06:37:17.818Z,95.47
2019-03-03T06:39:47.308Z,100.97
2019-03-03T06:42:16.842Z,93.80
2019-03-03T06:44:46.323Z,99.47
2019-03-03T06:47:15.849Z,95.83
2019-03-03T06:49:45.598Z,94.47
2019-03-03T06:52:15.136Z,102.83
2019-03-03T06:54:44.666Z,95.27
2019-03-03T06:57:14.722Z,89.43
2019-03-03T06:59:44.216Z,95.67
2019-03-03T07:02:13.745Z,93.63
2019-03-03T07:04:43.234Z,95.57
2019-03-03T07:07:12.760Z,97.10
2019-03-03T07:09:42.250Z,92.30
2019-03-03T07:12:11.798Z,93.90
2019-03-03T07:14:41.286Z,95.63
2019-03-03T07:17:10.867Z,93.30
2019-03-03T07:19:40.372Z,99.47
2019-03-03T07:22:09.918Z,93.80
2019-03-03T07:24:39.446Z,99.43
2019-03-03T07:27:08.985Z,100.13
2019-03-03T07:29:38.474Z,82.97
2019-03-03T07:32:08.695Z,101.80
2019-03-03T07:34:38.191Z,87.50
2019-03-03T07:37:07.752Z,90.67
2019-03-03T07:39:37.246Z,92.73
2019-03-03T07:42:08.631Z,89.13
2019-03-03T07:44:38.117Z,99.27
2019-03-03T07:47:07.649Z,95.83
2019-03-03T07:49:37.143Z,95.90
2019-03-03T07:52:06.687Z,94.93
2019-03-03T07:54:36.184Z,98.73
2019-03-03T07:57:05.706Z,99.73
2019-03-03T07:59:35.202Z,92.73
2019-03-03T08:02:05.770Z,81.10
2019-03-03T08:04:35.253Z,79.07
2019-03-03T08:07:04.778Z,80.53
2019-03-03T08:09:34.277Z,78.10
2019-03-03T08:12:03.800Z,79.20
2019-03-03T08:14:33.338Z,84.03
2019-03-03T08:17:02.857Z,74.07
2019-03-03T08:19:32.345Z,79.63
2019-03-03T08:22:01.870Z,83.63
2019-03-03T08:24:31.431Z,87.97
2019-03-03T08:27:00.974Z,87.53
2019-03-03T08:29:30.534Z,76.53
2019-03-03T08:32:00.067Z,80.60
2019-03-03T08:34:29.572Z,91.07
2019-03-03T08:37:00.279Z,88.40
2019-03-03T08:39:29.893Z,85.90
2019-03-03T08:42:01.067Z,89.33
2019-03-03T08:44:32.258Z,95.03
2019-03-03T08:47:09.627Z,91.67
2019-03-03T08:49:43.774Z,100.73
2019-03-03T08:52:14.962Z,89.37
2019-03-03T08:54:51.945Z,89.07
2019-03-03T08:57:41.063Z,92.27
2019-03-03T09:00:15.194Z,96.13
2019-03-03T09:02:49.122Z,98.97
2019-03-03T09:05:23.230Z,95.63
2019-03-03T09:08:03.493Z,97.67
2019-03-03T09:10:52.766Z,93.77
2019-03-03T09:13:23.969Z,102.90
2019-03-03T09:16:13.234Z,97.33
2019-03-03T09:19:00.218Z,102.23
2019-03-03T09:21:32.324Z,100.17
2019-03-03T09:24:19.517Z,101.23
2019-03-03T09:27:07.312Z,106.10
2019-03-03T09:29:47.287Z,97.93
2019-03-03T09:32:33.578Z,92.47
2019-03-03T09:35:07.677Z,91.77
2019-03-03T09:37:38.809Z,95.87
2019-03-03T09:40:13.991Z,87.90
2019-03-03T09:42:47.845Z,86.87
2019-03-03T09:45:25.014Z,85.40
2019-03-03T09:48:14.354Z,81.03
2019-03-03T09:50:48.486Z,78.30
2019-03-03T09:53:19.574Z,89.33
2019-03-03T09:56:02.546Z,86.97
2019-03-03T09:58:42.482Z,78.90
2019-03-03T10:01:28.780Z,73.73
2019-03-03T10:04:02.646Z,72.43
2019-03-03T10:06:36.818Z,74.67
2019-03-03T10:09:10.986Z,79.60
2019-03-03T10:11:48.073Z,70.50
2019-03-03T10:14:37.947Z,73.13
2019-03-03T10:17:12.062Z,67.60
2019-03-03T10:19:49.349Z,76.50
2019-03-03T10:22:36.866Z,74.03
2019-03-03T10:25:27.302Z,71.20
2019-03-03T10:27:58.797Z,73.53
2019-03-03T10:30:38.956Z,76.67
2019-03-03T10:33:22.570Z,74.67
2019-03-03T10:36:10.196Z,78.10
2019-03-03T10:38:41.374Z,70.17
2019-03-03T10:41:28.574Z,75.10
2019-03-03T10:44:08.794Z,76.70
2019-03-03T10:46:51.665Z,71.20
2019-03-03T10:49:22.845Z,71.27
2019-03-03T10:51:53.988Z,68.37
2019-03-03T10:54:31.165Z,72.83
2019-03-03T10:57:17.162Z,70.47
2019-03-03T10:59:54.926Z,67.27
2019-03-03T11:02:36.134Z,66.43
2019-03-03T11:05:23.806Z,67.30
2019-03-03T11:07:57.741Z,66.23
2019-03-03T11:10:28.929Z,63.10
2019-03-03T11:13:16.049Z,60.13
2019-03-03T11:15:58.831Z,63.47
2019-03-03T11:18:41.621Z,55.67
2019-03-03T11:21:12.942Z,59.80
2019-03-03T11:24:00.082Z,59.17
2019-03-03T11:26:47.626Z,56.50
2019-03-03T11:29:34.547Z,57.50
2019-03-03T11:32:05.890Z,57.37
2019-03-03T11:34:46.066Z,53.73
2019-03-03T11:37:20.254Z,52.40
2019-03-03T11:40:00.361Z,54.73
2019-03-03T11:42:37.409Z,57.60
2019-03-03T11:45:16.859Z,54.93
2019-03-03T11:48:06.362Z,53.30
2019-03-03T11:50:49.760Z,57.20
2019-03-03T11:53:20.945Z,47.57
2019-03-03T11:56:08.122Z,54.20
2019-03-03T11:58:39.369Z,56.60
2019-03-03T12:01:23.018Z,50.20
2019-03-03T12:03:57.331Z,48.10
2019-03-03T12:06:34.545Z,46.77
2019-03-03T12:09:13.360Z,52.63
2019-03-03T12:11:44.561Z,48.77
2019-03-03T12:14:21.701Z,41.97
2019-03-03T12:16:52.887Z,43.93
2019-03-03T12:19:32.880Z,48.87
2019-03-03T12:22:04.020Z,48.53
2019-03-03T12:24:41.470Z,47.97
2019-03-03T12:27:29.066Z,49.27
2019-03-03T12:30:02.595Z,41.50
2019-03-03T12:32:37.013Z,45.40
2019-03-03T12:35:12.926Z,49.73
2019-03-03T12:37:59.155Z,44.47
2019-03-03T12:40:30.338Z,42.07
2019-03-03T12:43:01.484Z,42.93
2019-03-03T12:45:32.650Z,44.80
2019-03-03T12:48:15.643Z,44.17
2019-03-03T12:50:49.622Z,43.70
2019-03-03T12:53:26.518Z,44.97
2019-03-03T12:56:00.354Z,44.47
2019-03-03T12:58:34.225Z,42.13
2019-03-03T13:01:23.727Z,52.80
2019-03-03T13:03:54.289Z,36.07
2019-03-03T13:06:43.744Z,40.57
2019-03-03T13:09:27.173Z,31.07
2019-03-03T13:11:58.354Z,44.90
2019-03-03T13:14:32.041Z,42.50
2019-03-03T13:17:21.861Z,44.13
2019-03-03T13:19:52.989Z,37.60
2019-03-03T13:22:33.713Z,37.27
2019-03-03T13:25:04.850Z,35.87
2019-03-03T13:27:38.974Z,37.13
2019-03-03T13:30:16.210Z,43.10
2019-03-03T13:32:50.354Z,39.90
2019-03-03T13:35:21.482Z,36.73
2019-03-03T13:37:55.329Z,37.50
2019-03-03T13:40:32.477Z,33.43
2019-03-03T13:43:02.047Z,32.27
2019-03-03T13:45:32.173Z,36.03
2019-03-03T13:48:01.706Z,30.73
2019-03-03T13:50:31.383Z,31.73
2019-03-03T13:53:00.942Z,32.70
2019-03-03T13:55:30.615Z,29.70
2019-03-03T13:58:01.135Z,31.93
2019-03-03T14:00:30.813Z,27.37
2019-03-03T14:03:00.371Z,31.13
2019-03-03T14:05:29.914Z,33.20
2019-03-03T14:07:59.578Z,28.50
2019-03-03T14:10:29.186Z,34.77
2019-03-03T14:12:58.750Z,32.13
2019-03-03T14:15:28.326Z,28.30
2019-03-03T14:17:58.204Z,29.27
2019-03-03T14:20:27.767Z,25.83
2019-03-03T14:22:57.298Z,29.00
2019-03-03T14:25:26.877Z,27.80
2019-03-03T14:27:56.485Z,25.27
2019-03-03T14:30:27.620Z,27.83
2019-03-03T14:32:57.332Z,25.77
2019-03-03T14:35:26.826Z,24.33
2019-03-03T14:37:56.445Z,25.00
2019-03-03T14:40:25.962Z,27.00
2019-03-03T14:42:55.502Z,23.90
2019-03-03T14:45:25.278Z,25.07
2019-03-03T14:47:54.884Z,30.97
2019-03-03T14:50:24.443Z,25.80
2019-03-03T14:52:56.213Z,30.07
2019-03-03T14:55:25.777Z,24.93
2019-03-03T14:57:55.301Z,26.83
2019-03-03T15:00:30.054Z,29.00
2019-03-03T15:03:01.289Z,24.67
2019-03-03T15:05:31.114Z,31.17
2019-03-03T15:08:00.721Z,29.27
2019-03-03T15:10:30.218Z,39.23
2019-03-03T15:13:00.082Z,30.67
2019-03-03T15:15:34.722Z,30.07
2019-03-03T15:18:04.578Z,33.33
2019-03-03T15:20:34.306Z,32.47
2019-03-03T15:23:04.150Z,27.57
2019-03-03T15:25:34.946Z,36.20
2019-03-03T15:28:07.253Z,29.27
2019-03-03T15:30:36.742Z,31.20
2019-03-03T15:33:06.411Z,34.60
2019-03-03T15:35:40.791Z,34.03
2019-03-03T15:38:10.480Z,42.03
2019-03-03T15:40:41.049Z,35.30
2019-03-03T15:43:10.580Z,42.40
2019-03-03T15:45:40.094Z,29.97
2019-03-03T15:48:09.638Z,33.87
2019-03-03T15:50:39.219Z,32.40
2019-03-03T15:53:08.986Z,41.87
2019-03-03T15:55:38.820Z,42.80
2019-03-03T15:58:08.974Z,37.73
2019-03-03T16:00:42.894Z,45.73
2019-03-03T16:03:12.511Z,54.80
2019-03-03T16:05:42.300Z,63.53
2019-03-03T16:08:12.197Z,46.00
2019-03-03T16:10:41.750Z,36.97
2019-03-03T16:13:11.283Z,40.43
2019-03-03T16:15:40.777Z,32.43
2019-03-03T16:18:10.482Z,44.03
2019-03-03T16:20:39.985Z,37.80
2019-03-03T16:23:10.684Z,36.57
2019-03-03T16:25:40.389Z,52.87
2019-03-03T16:28:10.001Z,38.53
2019-03-03T16:30:39.486Z,49.33
2019-03-03T16:33:09.089Z,33.47
2019-03-03T16:35:38.577Z,33.53
2019-03-03T16:38:08.537Z,33.07
2019-03-03T16:40:39.785Z,40.40
2019-03-03T16:43:09.213Z,33.53
2019-03-03T16:45:38.702Z,32.43
2019-03-03T16:48:08.237Z,29.43
2019-03-03T16:50:37.721Z,34.60
2019-03-03T16:53:07.262Z,35.07
2019-03-03T16:55:36.817Z,33.53
2019-03-03T16:58:06.426Z,36.07
2019-03-03T17:00:36.078Z,32.87
2019-03-03T17:03:05.688Z,35.97
2019-03-03T17:05:35.170Z,37.43
2019-03-03T17:08:04.788Z,31.27
2019-03-03T17:10:35.694Z,33.10
2019-03-03T17:13:05.369Z,27.43
2019-03-03T17:15:34.958Z,36.00
2019-03-03T17:18:06.907Z,36.53
2019-03-03T17:20:37.359Z,37.43
2019-03-03T17:23:07.073Z,40.73
2019-03-03T17:25:36.598Z,28.83
2019-03-03T17:28:06.197Z,50.40
2019-03-03T17:30:35.822Z,57.97
2019-03-03T17:33:05.350Z,132.20
2019-03-03T17:35:34.894Z,41.03
2019-03-03T17:38:04.433Z,37.70
2019-03-03T17:40:33.977Z,38.13
2019-03-03T17:43:03.470Z,35.07
2019-03-03T17:45:33.013Z,31.03
2019-03-03T17:48:05.521Z,32.20
2019-03-03T17:50:35.065Z,31.43
2019-03-03T17:53:04.558Z,40.20
2019-03-03T17:55:34.157Z,37.87
2019-03-03T17:58:03.676Z,49.03
2019-03-03T18:00:42.281Z,30.27
2019-03-03T18:03:11.766Z,41.00
2019-03-03T18:05:45.667Z,42.33
2019-03-03T18:08:15.214Z,38.10
2019-03-03T18:10:44.937Z,35.10
2019-03-03T18:13:14.438Z,33.37
2019-03-03T18:15:44.221Z,30.73
2019-03-03T18:18:13.766Z,26.57
2019-03-03T18:20:43.299Z,52.40
2019-03-03T18:23:12.863Z,42.50
2019-03-03T18:25:42.434Z,29.70
2019-03-03T18:28:11.962Z,33.90
2019-03-03T18:30:41.498Z,39.80
2019-03-03T18:33:11.012Z,35.60
2019-03-03T18:35:40.556Z,47.57
2019-03-03T18:38:12.858Z,47.83
2019-03-03T18:40:42.414Z,39.50
2019-03-03T18:43:12.280Z,35.43
2019-03-03T18:45:42.075Z,50.13
2019-03-03T18:48:11.570Z,90.10
2019-03-03T18:50:58.761Z,46.53
2019-03-03T18:53:33.946Z,36.37
2019-03-03T18:59:08.887Z,38.30
2019-03-03T19:01:39.993Z,39.77
2019-03-03T19:04:09.482Z,47.97
2019-03-03T19:06:40.034Z,55.20
2019-03-03T19:09:11.984Z,44.77
2019-03-03T19:11:42.600Z,36.53
2019-03-03T19:14:13.819Z,39.47
2019-03-03T19:16:43.363Z,40.87
2019-03-03T19:19:12.904Z,40.23
2019-03-03T19:21:42.489Z,32.00
2019-03-03T19:24:11.982Z,63.60
2019-03-03T19:26:41.197Z,40.73
2019-03-03T19:29:10.623Z,57.77
2019-03-03T19:31:40.340Z,43.90
2019-03-03T19:34:12.842Z,42.87
2019-03-03T19:36:42.452Z,40.13
2019-03-03T19:39:12.097Z,50.07
2019-03-03T19:41:44.278Z,39.90
2019-03-03T19:44:13.773Z,37.67
2019-03-03T19:46:44.556Z,53.30
2019-03-03T19:49:15.681Z,33.50
2019-03-03T19:51:45.026Z,42.27
2019-03-03T19:54:14.443Z,43.73
2019-03-03T19:56:45.026Z,41.60
2019-03-03T19:59:14.596Z,37.77
2019-03-03T20:01:44.121Z,45.90
2019-03-03T20:04:13.649Z,59.87
2019-03-03T20:06:43.150Z,41.17
2019-03-03T20:09:14.985Z,39.80
2019-03-03T20:11:47.019Z,57.10
2019-03-03T20:14:19.056Z,47.33
2019-03-03T20:16:48.546Z,52.10
2019-03-03T20:19:18.127Z,57.17
2019-03-03T20:21:47.661Z,38.27
2019-03-03T20:24:17.202Z,40.90
2019-03-03T20:26:47.233Z,62.30
2019-03-03T20:29:16.794Z,41.77
2019-03-03T20:31:49.350Z,62.77
2019-03-03T20:34:21.784Z,47.73
2019-03-03T20:36:52.899Z,48.87
2019-03-03T20:39:22.381Z,44.17
2019-03-03T20:41:51.957Z,52.87
2019-03-03T20:44:21.534Z,44.87
2019-03-03T20:46:51.089Z,64.73
2019-03-03T20:49:20.638Z,61.40
2019-03-03T20:51:50.118Z,61.50
2019-03-03T20:54:19.681Z,43.93
2019-03-03T20:56:49.183Z,38.57
2019-03-03T20:59:18.744Z,46.67
2019-03-03T21:01:48.245Z,47.27
2019-03-03T21:04:17.790Z,43.93
2019-03-03T21:06:47.292Z,47.57
2019-03-03T21:09:19.602Z,37.67
2019-03-03T21:11:49.085Z,44.83
2019-03-03T21:14:18.622Z,52.50
2019-03-03T21:16:48.586Z,58.80
2019-03-03T21:19:18.074Z,50.30
2019-03-03T21:21:47.618Z,44.33
2019-03-03T21:24:17.120Z,37.43
2019-03-03T21:26:46.658Z,39.83
2019-03-03T21:29:20.374Z,40.30
2019-03-03T21:31:50.238Z,57.53
2019-03-03T21:34:20.353Z,50.50
2019-03-03T21:36:49.900Z,45.10
2019-03-03T21:39:19.426Z,40.97
2019-03-03T21:41:48.921Z,44.23
2019-03-03T21:44:20.138Z,40.00
2019-03-03T21:46:51.714Z,44.07
2019-03-03T21:49:20.886Z,37.00
2019-03-03T21:51:50.379Z,37.67
2019-03-03T21:54:19.987Z,38.30
2019-03-03T21:56:50.094Z,45.87
2019-03-03T21:59:19.645Z,38.97
2019-03-03T22:01:49.446Z,40.13
2019-03-03T22:04:18.890Z,39.30
2019-03-03T22:06:48.439Z,39.63
2019-03-03T22:09:17.922Z,40.67
2019-03-03T22:11:49.102Z,37.33
2019-03-03T22:14:18.602Z,39.70
2019-03-03T22:16:50.388Z,37.97
2019-03-03T22:19:19.288Z,34.30
2019-03-03T22:21:48.850Z,33.83
2019-03-03T22:24:18.333Z,36.70
2019-03-03T22:26:47.861Z,33.53
2019-03-03T22:29:17.385Z,37.10
2019-03-03T22:31:46.902Z,36.03
2019-03-03T22:34:16.438Z,34.13
2019-03-03T22:36:45.934Z,33.20
2019-03-03T22:39:15.657Z,36.33
2019-03-03T22:41:45.187Z,35.70
2019-03-03T22:44:14.749Z,39.90
2019-03-03T22:46:44.246Z,33.23
2019-03-03T22:49:13.944Z,32.60
2019-03-03T22:51:43.454Z,31.97
2019-03-03T22:54:13.851Z,34.93
2019-03-03T22:56:43.397Z,32.10
2019-03-03T22:59:12.898Z,33.07
2019-03-03T23:01:42.685Z,33.87
2019-03-03T23:04:27.297Z,32.30
2019-03-03T23:07:05.706Z,31.80
2019-03-03T23:10:08.332Z,36.30
2019-03-03T23:12:57.463Z,34.53
2019-03-03T23:15:49.241Z,31.80
2019-03-03T23:18:27.879Z,31.70
2019-03-03T23:21:12.119Z,27.93
2019-03-03T23:24:17.661Z,32.87
2019-03-03T23:26:47.155Z,34.17
2019-03-03T23:29:16.705Z,28.80
2019-03-03T23:31:46.424Z,33.10
2019-03-03T23:34:15.971Z,34.83
2019-03-03T23:36:45.465Z,30.17
2019-03-03T23:39:15.010Z,33.70
2019-03-03T23:41:44.685Z,27.90
2019-03-03T23:44:14.247Z,31.00
2019-03-03T23:46:44.173Z,34.73
2019-03-03T23:49:17.082Z,30.40
2019-03-03T23:51:46.613Z,33.37
2019-03-03T23:54:16.978Z,33.23
2019-03-03T23:56:46.505Z,28.90
2019-03-03T23:59:16.333Z,35.10
